sensor_id;sensor_type;location;lat;lon;timestamp;temperature;humidity
16517;DHT22;8371;52.272;9.746;2023-05-16T00:01:34;13.10;62.30
16517;DHT22;8371;52.272;9.746;2023-05-16T00:04:00;13.10;62.50
16517;DHT22;8371;52.272;9.746;2023-05-16T00:06:25;13.10;62.60
16517;DHT22;8371;52.272;9.746;2023-05-16T00:08:52;13.10;62.50
16517;DHT22;8371;52.272;9.746;2023-05-16T00:11:17;13.10;62.40
16517;DHT22;8371;52.272;9.746;2023-05-16T00:13:43;13.10;62.50
16517;DHT22;8371;52.272;9.746;2023-05-16T00:16:09;13.30;62.60
16517;DHT22;8371;52.272;9.746;2023-05-16T00:18:36;13.10;62.80
16517;DHT22;8371;52.272;9.746;2023-05-16T00:21:02;13.10;62.60
16517;DHT22;8371;52.272;9.746;2023-05-16T00:23:30;13.10;62.60
16517;DHT22;8371;52.272;9.746;2023-05-16T00:25:55;13.10;62.60
16517;DHT22;8371;52.272;9.746;2023-05-16T00:28:21;13.10;62.60
16517;DHT22;8371;52.272;9.746;2023-05-16T00:30:47;13.10;62.90
16517;DHT22;8371;52.272;9.746;2023-05-16T00:33:13;13.00;63.10
16517;DHT22;8371;52.272;9.746;2023-05-16T00:35:38;13.10;63.00
16517;DHT22;8371;52.272;9.746;2023-05-16T00:38:05;13.10;62.90
16517;DHT22;8371;52.272;9.746;2023-05-16T00:40:31;13.10;63.10
16517;DHT22;8371;52.272;9.746;2023-05-16T00:42:56;13.00;63.00
16517;DHT22;8371;52.272;9.746;2023-05-16T00:45:22;13.00;63.10
16517;DHT22;8371;52.272;9.746;2023-05-16T00:47:49;13.00;63.20
16517;DHT22;8371;52.272;9.746;2023-05-16T00:50:16;13.00;63.30
16517;DHT22;8371;52.272;9.746;2023-05-16T00:52:42;13.00;63.60
16517;DHT22;8371;52.272;9.746;2023-05-16T00:55:08;13.00;63.70
16517;DHT22;8371;52.272;9.746;2023-05-16T00:57:36;13.00;63.60
16517;DHT22;8371;52.272;9.746;2023-05-16T01:00:06;13.00;63.90
16517;DHT22;8371;52.272;9.746;2023-05-16T01:02:34;13.00;63.80
16517;DHT22;8371;52.272;9.746;2023-05-16T01:05:01;13.00;63.80
16517;DHT22;8371;52.272;9.746;2023-05-16T01:07:28;13.00;64.20
16517;DHT22;8371;52.272;9.746;2023-05-16T01:09:54;13.00;63.90
16517;DHT22;8371;52.272;9.746;2023-05-16T01:15:17;13.00;64.30
16517;DHT22;8371;52.272;9.746;2023-05-16T01:17:59;13.00;64.10
16517;DHT22;8371;52.272;9.746;2023-05-16T01:20:52;13.00;63.90
16517;DHT22;8371;52.272;9.746;2023-05-16T01:23:51;13.00;64.00
16517;DHT22;8371;52.272;9.746;2023-05-16T01:26:19;13.00;64.00
16517;DHT22;8371;52.272;9.746;2023-05-16T01:28:48;13.00;63.80
16517;DHT22;8371;52.272;9.746;2023-05-16T01:31:15;13.00;64.10
16517;DHT22;8371;52.272;9.746;2023-05-16T01:33:42;13.00;63.90
16517;DHT22;8371;52.272;9.746;2023-05-16T01:36:43;13.00;64.00
16517;DHT22;8371;52.272;9.746;2023-05-16T01:39:26;13.00;64.00
16517;DHT22;8371;52.272;9.746;2023-05-16T01:42:09;13.00;63.80
16517;DHT22;8371;52.272;9.746;2023-05-16T01:44:42;13.00;63.90
16517;DHT22;8371;52.272;9.746;2023-05-16T01:47:11;13.00;64.10
16517;DHT22;8371;52.272;9.746;2023-05-16T01:50:07;13.00;64.20
16517;DHT22;8371;52.272;9.746;2023-05-16T01:52:39;13.00;64.10
16517;DHT22;8371;52.272;9.746;2023-05-16T01:55:07;13.00;63.90
16517;DHT22;8371;52.272;9.746;2023-05-16T01:57:34;13.00;63.90
16517;DHT22;8371;52.272;9.746;2023-05-16T02:00:00;13.00;64.30
16517;DHT22;8371;52.272;9.746;2023-05-16T02:02:26;12.90;64.50
16517;DHT22;8371;52.272;9.746;2023-05-16T02:04:52;12.90;64.40
16517;DHT22;8371;52.272;9.746;2023-05-16T02:07:18;12.90;64.70
16517;DHT22;8371;52.272;9.746;2023-05-16T02:09:43;13.00;64.80
16517;DHT22;8371;52.272;9.746;2023-05-16T02:12:09;12.90;64.70
16517;DHT22;8371;52.272;9.746;2023-05-16T02:14:35;12.90;64.80
16517;DHT22;8371;52.272;9.746;2023-05-16T02:17:00;12.90;64.90
16517;DHT22;8371;52.272;9.746;2023-05-16T02:19:26;12.90;64.70
16517;DHT22;8371;52.272;9.746;2023-05-16T02:21:52;12.90;64.80
16517;DHT22;8371;52.272;9.746;2023-05-16T02:24:17;12.90;64.60
16517;DHT22;8371;52.272;9.746;2023-05-16T02:26:43;12.90;64.80
16517;DHT22;8371;52.272;9.746;2023-05-16T02:29:09;12.90;65.00
16517;DHT22;8371;52.272;9.746;2023-05-16T02:31:35;12.90;65.00
16517;DHT22;8371;52.272;9.746;2023-05-16T02:34:01;12.90;65.10
16517;DHT22;8371;52.272;9.746;2023-05-16T02:36:27;12.90;65.20
16517;DHT22;8371;52.272;9.746;2023-05-16T02:38:54;12.90;65.10
16517;DHT22;8371;52.272;9.746;2023-05-16T02:41:20;13.00;65.10
16517;DHT22;8371;52.272;9.746;2023-05-16T02:43:47;13.00;65.60
16517;DHT22;8371;52.272;9.746;2023-05-16T02:46:23;13.00;65.30
16517;DHT22;8371;52.272;9.746;2023-05-16T02:48:49;13.00;65.30
16517;DHT22;8371;52.272;9.746;2023-05-16T02:51:16;13.00;65.10
16517;DHT22;8371;52.272;9.746;2023-05-16T02:53:42;13.00;64.80
16517;DHT22;8371;52.272;9.746;2023-05-16T02:56:08;13.00;64.90
16517;DHT22;8371;52.272;9.746;2023-05-16T02:58:34;13.00;65.00
16517;DHT22;8371;52.272;9.746;2023-05-16T03:01:00;12.90;65.10
16517;DHT22;8371;52.272;9.746;2023-05-16T03:03:26;12.90;64.90
16517;DHT22;8371;52.272;9.746;2023-05-16T03:05:51;12.90;65.10
16517;DHT22;8371;52.272;9.746;2023-05-16T03:08:17;12.90;65.30
16517;DHT22;8371;52.272;9.746;2023-05-16T03:10:43;12.90;65.40
16517;DHT22;8371;52.272;9.746;2023-05-16T03:13:08;12.90;65.20
16517;DHT22;8371;52.272;9.746;2023-05-16T03:15:34;12.90;65.20
16517;DHT22;8371;52.272;9.746;2023-05-16T03:18:00;12.90;65.40
16517;DHT22;8371;52.272;9.746;2023-05-16T03:20:25;12.90;66.00
16517;DHT22;8371;52.272;9.746;2023-05-16T03:22:51;12.90;65.30
16517;DHT22;8371;52.272;9.746;2023-05-16T03:25:17;12.90;65.50
16517;DHT22;8371;52.272;9.746;2023-05-16T03:27:42;12.80;65.40
16517;DHT22;8371;52.272;9.746;2023-05-16T03:30:08;12.80;65.30
16517;DHT22;8371;52.272;9.746;2023-05-16T03:32:34;12.80;65.50
16517;DHT22;8371;52.272;9.746;2023-05-16T03:35:00;12.70;65.60
16517;DHT22;8371;52.272;9.746;2023-05-16T03:37:26;12.60;65.60
16517;DHT22;8371;52.272;9.746;2023-05-16T03:39:51;12.60;66.20
16517;DHT22;8371;52.272;9.746;2023-05-16T03:42:17;12.50;66.00
16517;DHT22;8371;52.272;9.746;2023-05-16T03:44:43;12.50;66.20
16517;DHT22;8371;52.272;9.746;2023-05-16T03:47:09;12.50;66.20
16517;DHT22;8371;52.272;9.746;2023-05-16T03:49:35;12.40;66.30
16517;DHT22;8371;52.272;9.746;2023-05-16T03:52:03;12.50;66.40
16517;DHT22;8371;52.272;9.746;2023-05-16T03:54:28;12.40;66.80
16517;DHT22;8371;52.272;9.746;2023-05-16T03:56:54;12.40;66.70
16517;DHT22;8371;52.272;9.746;2023-05-16T03:59:20;12.40;66.70
16517;DHT22;8371;52.272;9.746;2023-05-16T04:01:46;12.40;67.50
16517;DHT22;8371;52.272;9.746;2023-05-16T04:04:12;12.30;66.80
16517;DHT22;8371;52.272;9.746;2023-05-16T04:06:38;12.30;66.90
16517;DHT22;8371;52.272;9.746;2023-05-16T04:09:04;12.30;67.20
16517;DHT22;8371;52.272;9.746;2023-05-16T04:11:31;12.30;67.00
16517;DHT22;8371;52.272;9.746;2023-05-16T04:13:57;12.30;66.90
16517;DHT22;8371;52.272;9.746;2023-05-16T04:16:23;12.30;67.00
16517;DHT22;8371;52.272;9.746;2023-05-16T04:18:48;12.30;67.10
16517;DHT22;8371;52.272;9.746;2023-05-16T04:21:14;12.30;66.90
16517;DHT22;8371;52.272;9.746;2023-05-16T04:23:40;12.40;67.00
16517;DHT22;8371;52.272;9.746;2023-05-16T04:26:06;12.30;67.00
16517;DHT22;8371;52.272;9.746;2023-05-16T04:28:32;12.40;67.00
16517;DHT22;8371;52.272;9.746;2023-05-16T04:30:58;12.40;67.00
16517;DHT22;8371;52.272;9.746;2023-05-16T04:33:23;12.40;66.80
16517;DHT22;8371;52.272;9.746;2023-05-16T04:35:49;12.50;67.00
16517;DHT22;8371;52.272;9.746;2023-05-16T04:38:17;12.50;66.90
16517;DHT22;8371;52.272;9.746;2023-05-16T04:40:43;12.50;66.90
16517;DHT22;8371;52.272;9.746;2023-05-16T04:43:09;12.50;66.80
16517;DHT22;8371;52.272;9.746;2023-05-16T04:45:34;12.50;66.90
16517;DHT22;8371;52.272;9.746;2023-05-16T04:48:01;12.60;67.00
16517;DHT22;8371;52.272;9.746;2023-05-16T04:50:26;12.60;66.90
16517;DHT22;8371;52.272;9.746;2023-05-16T04:52:52;12.60;66.70
16517;DHT22;8371;52.272;9.746;2023-05-16T04:55:18;12.60;66.50
16517;DHT22;8371;52.272;9.746;2023-05-16T04:57:43;12.60;66.50
16517;DHT22;8371;52.272;9.746;2023-05-16T05:00:11;12.50;66.40
16517;DHT22;8371;52.272;9.746;2023-05-16T05:02:38;12.50;66.40
16517;DHT22;8371;52.272;9.746;2023-05-16T05:05:04;12.50;66.30
16517;DHT22;8371;52.272;9.746;2023-05-16T05:07:34;12.50;66.40
16517;DHT22;8371;52.272;9.746;2023-05-16T05:09:59;12.50;66.40
16517;DHT22;8371;52.272;9.746;2023-05-16T05:12:25;12.50;66.50
16517;DHT22;8371;52.272;9.746;2023-05-16T05:14:52;12.50;66.50
16517;DHT22;8371;52.272;9.746;2023-05-16T05:17:19;12.50;66.40
16517;DHT22;8371;52.272;9.746;2023-05-16T05:19:46;12.50;66.40
16517;DHT22;8371;52.272;9.746;2023-05-16T05:22:13;12.50;66.30
16517;DHT22;8371;52.272;9.746;2023-05-16T05:24:38;12.50;66.10
16517;DHT22;8371;52.272;9.746;2023-05-16T05:27:04;12.50;66.10
16517;DHT22;8371;52.272;9.746;2023-05-16T05:29:30;12.50;66.00
16517;DHT22;8371;52.272;9.746;2023-05-16T05:31:56;12.50;66.00
16517;DHT22;8371;52.272;9.746;2023-05-16T05:34:22;12.50;65.70
16517;DHT22;8371;52.272;9.746;2023-05-16T05:36:47;12.50;65.70
16517;DHT22;8371;52.272;9.746;2023-05-16T05:39:13;12.50;65.80
16517;DHT22;8371;52.272;9.746;2023-05-16T05:41:39;12.50;65.70
16517;DHT22;8371;52.272;9.746;2023-05-16T05:44:05;12.50;65.70
16517;DHT22;8371;52.272;9.746;2023-05-16T05:46:31;12.40;65.70
16517;DHT22;8371;52.272;9.746;2023-05-16T05:48:58;12.40;65.70
16517;DHT22;8371;52.272;9.746;2023-05-16T05:51:24;12.40;65.70
16517;DHT22;8371;52.272;9.746;2023-05-16T05:53:51;12.40;65.80
16517;DHT22;8371;52.272;9.746;2023-05-16T05:56:17;12.50;65.80
16517;DHT22;8371;52.272;9.746;2023-05-16T05:58:43;12.40;65.80
16517;DHT22;8371;52.272;9.746;2023-05-16T06:01:11;12.50;66.00
16517;DHT22;8371;52.272;9.746;2023-05-16T06:03:37;12.50;65.70
16517;DHT22;8371;52.272;9.746;2023-05-16T06:06:03;12.50;65.60
16517;DHT22;8371;52.272;9.746;2023-05-16T06:08:29;12.50;65.60
16517;DHT22;8371;52.272;9.746;2023-05-16T06:10:55;12.50;65.60
16517;DHT22;8371;52.272;9.746;2023-05-16T06:13:20;12.50;65.60
16517;DHT22;8371;52.272;9.746;2023-05-16T06:15:50;12.50;65.60
16517;DHT22;8371;52.272;9.746;2023-05-16T06:18:16;12.50;65.40
16517;DHT22;8371;52.272;9.746;2023-05-16T06:20:42;12.60;65.60
16517;DHT22;8371;52.272;9.746;2023-05-16T06:23:08;12.60;65.70
16517;DHT22;8371;52.272;9.746;2023-05-16T06:25:33;12.60;65.70
16517;DHT22;8371;52.272;9.746;2023-05-16T06:27:59;12.70;65.70
16517;DHT22;8371;52.272;9.746;2023-05-16T06:30:25;12.70;65.80
16517;DHT22;8371;52.272;9.746;2023-05-16T06:32:51;12.80;65.80
16517;DHT22;8371;52.272;9.746;2023-05-16T06:35:16;12.80;65.70
16517;DHT22;8371;52.272;9.746;2023-05-16T06:37:42;12.90;65.50
16517;DHT22;8371;52.272;9.746;2023-05-16T06:40:08;13.00;65.40
16517;DHT22;8371;52.272;9.746;2023-05-16T06:42:34;13.00;65.30
16517;DHT22;8371;52.272;9.746;2023-05-16T06:44:59;13.10;65.30
16517;DHT22;8371;52.272;9.746;2023-05-16T06:47:25;13.10;65.20
16517;DHT22;8371;52.272;9.746;2023-05-16T06:49:51;13.20;65.40
16517;DHT22;8371;52.272;9.746;2023-05-16T06:52:16;13.30;65.70
16517;DHT22;8371;52.272;9.746;2023-05-16T06:54:42;13.40;65.80
16517;DHT22;8371;52.272;9.746;2023-05-16T06:57:08;13.50;65.80
16517;DHT22;8371;52.272;9.746;2023-05-16T06:59:34;13.70;65.40
16517;DHT22;8371;52.272;9.746;2023-05-16T07:02:00;13.80;65.00
16517;DHT22;8371;52.272;9.746;2023-05-16T07:04:26;13.90;64.60
16517;DHT22;8371;52.272;9.746;2023-05-16T07:06:52;13.90;64.00
16517;DHT22;8371;52.272;9.746;2023-05-16T07:09:18;13.90;63.60
16517;DHT22;8371;52.272;9.746;2023-05-16T07:11:44;14.00;63.50
16517;DHT22;8371;52.272;9.746;2023-05-16T07:14:10;14.00;63.40
16517;DHT22;8371;52.272;9.746;2023-05-16T07:16:35;13.90;63.20
16517;DHT22;8371;52.272;9.746;2023-05-16T07:19:01;13.90;63.20
16517;DHT22;8371;52.272;9.746;2023-05-16T07:21:27;13.90;63.40
16517;DHT22;8371;52.272;9.746;2023-05-16T07:23:53;14.00;63.40
16517;DHT22;8371;52.272;9.746;2023-05-16T07:26:19;14.00;63.00
16517;DHT22;8371;52.272;9.746;2023-05-16T07:28:47;14.10;62.50
16517;DHT22;8371;52.272;9.746;2023-05-16T07:31:13;14.10;62.20
16517;DHT22;8371;52.272;9.746;2023-05-16T07:33:39;14.10;62.20
16517;DHT22;8371;52.272;9.746;2023-05-16T07:36:05;14.20;62.20
16517;DHT22;8371;52.272;9.746;2023-05-16T07:38:31;14.20;62.10
16517;DHT22;8371;52.272;9.746;2023-05-16T07:40:56;14.30;61.70
16517;DHT22;8371;52.272;9.746;2023-05-16T07:43:22;14.40;61.70
16517;DHT22;8371;52.272;9.746;2023-05-16T07:45:48;14.50;61.70
16517;DHT22;8371;52.272;9.746;2023-05-16T07:48:13;14.60;61.60
16517;DHT22;8371;52.272;9.746;2023-05-16T07:50:39;14.70;61.70
16517;DHT22;8371;52.272;9.746;2023-05-16T07:53:05;14.80;61.70
16517;DHT22;8371;52.272;9.746;2023-05-16T07:55:31;15.00;60.70
16517;DHT22;8371;52.272;9.746;2023-05-16T07:57:56;15.10;60.50
16517;DHT22;8371;52.272;9.746;2023-05-16T08:00:22;15.20;60.30
16517;DHT22;8371;52.272;9.746;2023-05-16T08:02:48;15.30;60.30
16517;DHT22;8371;52.272;9.746;2023-05-16T08:05:13;15.40;60.70
16517;DHT22;8371;52.272;9.746;2023-05-16T08:07:39;15.50;60.00
16517;DHT22;8371;52.272;9.746;2023-05-16T08:10:05;15.60;60.50
16517;DHT22;8371;52.272;9.746;2023-05-16T08:12:31;15.70;60.10
16517;DHT22;8371;52.272;9.746;2023-05-16T08:14:57;15.80;59.70
16517;DHT22;8371;52.272;9.746;2023-05-16T08:17:23;15.80;59.20
16517;DHT22;8371;52.272;9.746;2023-05-16T08:19:48;15.90;59.30
16517;DHT22;8371;52.272;9.746;2023-05-16T08:22:14;15.90;59.30
16517;DHT22;8371;52.272;9.746;2023-05-16T08:24:40;15.90;59.30
16517;DHT22;8371;52.272;9.746;2023-05-16T08:27:06;16.00;59.30
16517;DHT22;8371;52.272;9.746;2023-05-16T08:29:33;16.10;59.60
16517;DHT22;8371;52.272;9.746;2023-05-16T08:31:58;16.20;59.70
16517;DHT22;8371;52.272;9.746;2023-05-16T08:34:24;16.30;59.00
16517;DHT22;8371;52.272;9.746;2023-05-16T08:36:50;16.40;58.70
16517;DHT22;8371;52.272;9.746;2023-05-16T08:39:15;16.40;58.30
16517;DHT22;8371;52.272;9.746;2023-05-16T08:41:41;16.40;58.20
16517;DHT22;8371;52.272;9.746;2023-05-16T08:44:07;16.50;58.50
16517;DHT22;8371;52.272;9.746;2023-05-16T08:46:35;16.50;58.10
16517;DHT22;8371;52.272;9.746;2023-05-16T08:49:02;16.60;58.00
16517;DHT22;8371;52.272;9.746;2023-05-16T08:51:32;16.70;57.10
16517;DHT22;8371;52.272;9.746;2023-05-16T08:54:07;16.70;57.50
16517;DHT22;8371;52.272;9.746;2023-05-16T08:56:35;16.70;57.60
16517;DHT22;8371;52.272;9.746;2023-05-16T08:59:01;16.70;57.80
16517;DHT22;8371;52.272;9.746;2023-05-16T09:01:27;16.90;58.20
16517;DHT22;8371;52.272;9.746;2023-05-16T09:03:54;17.00;58.20
16517;DHT22;8371;52.272;9.746;2023-05-16T09:06:19;17.10;58.20
16517;DHT22;8371;52.272;9.746;2023-05-16T09:08:46;17.30;58.30
16517;DHT22;8371;52.272;9.746;2023-05-16T09:11:11;17.40;57.70
16517;DHT22;8371;52.272;9.746;2023-05-16T09:13:40;17.50;57.60
16517;DHT22;8371;52.272;9.746;2023-05-16T09:16:17;17.60;57.30
16517;DHT22;8371;52.272;9.746;2023-05-16T09:18:52;17.70;57.00
16517;DHT22;8371;52.272;9.746;2023-05-16T09:21:19;17.70;56.50
16517;DHT22;8371;52.272;9.746;2023-05-16T09:23:47;17.80;56.50
16517;DHT22;8371;52.272;9.746;2023-05-16T09:26:14;17.90;56.70
16517;DHT22;8371;52.272;9.746;2023-05-16T09:28:40;17.90;56.50
16517;DHT22;8371;52.272;9.746;2023-05-16T09:31:21;17.90;56.30
16517;DHT22;8371;52.272;9.746;2023-05-16T09:33:48;18.00;56.60
16517;DHT22;8371;52.272;9.746;2023-05-16T09:36:16;18.10;57.20
16517;DHT22;8371;52.272;9.746;2023-05-16T09:38:42;18.20;56.00
16517;DHT22;8371;52.272;9.746;2023-05-16T09:41:09;18.20;55.80
16517;DHT22;8371;52.272;9.746;2023-05-16T09:43:37;18.30;55.60
16517;DHT22;8371;52.272;9.746;2023-05-16T09:46:03;18.30;56.00
16517;DHT22;8371;52.272;9.746;2023-05-16T09:48:31;18.50;55.80
16517;DHT22;8371;52.272;9.746;2023-05-16T09:50:56;18.60;55.00
16517;DHT22;8371;52.272;9.746;2023-05-16T09:53:29;18.70;54.50
16517;DHT22;8371;52.272;9.746;2023-05-16T09:55:59;18.80;54.50
16517;DHT22;8371;52.272;9.746;2023-05-16T09:58:27;18.80;54.20
16517;DHT22;8371;52.272;9.746;2023-05-16T10:00:54;18.90;54.20
16517;DHT22;8371;52.272;9.746;2023-05-16T10:03:21;19.00;54.40
16517;DHT22;8371;52.272;9.746;2023-05-16T10:05:47;19.10;54.30
16517;DHT22;8371;52.272;9.746;2023-05-16T10:08:14;19.20;54.50
16517;DHT22;8371;52.272;9.746;2023-05-16T10:10:40;19.30;54.00
16517;DHT22;8371;52.272;9.746;2023-05-16T10:13:08;19.40;54.20
16517;DHT22;8371;52.272;9.746;2023-05-16T10:15:36;19.50;53.20
16517;DHT22;8371;52.272;9.746;2023-05-16T10:18:04;19.50;52.90
16517;DHT22;8371;52.272;9.746;2023-05-16T10:20:33;19.50;52.70
16517;DHT22;8371;52.272;9.746;2023-05-16T10:23:00;19.50;53.10
16517;DHT22;8371;52.272;9.746;2023-05-16T10:25:39;19.50;52.70
16517;DHT22;8371;52.272;9.746;2023-05-16T10:28:02;19.60;52.70
16517;DHT22;8371;52.272;9.746;2023-05-16T10:30:30;19.70;52.80
16517;DHT22;8371;52.272;9.746;2023-05-16T10:32:56;19.70;52.70
16517;DHT22;8371;52.272;9.746;2023-05-16T10:35:22;19.90;52.80
16517;DHT22;8371;52.272;9.746;2023-05-16T10:37:49;20.00;52.70
16517;DHT22;8371;52.272;9.746;2023-05-16T10:40:15;20.20;52.80
16517;DHT22;8371;52.272;9.746;2023-05-16T10:42:44;20.30;52.50
16517;DHT22;8371;52.272;9.746;2023-05-16T10:45:18;20.50;51.80
16517;DHT22;8371;52.272;9.746;2023-05-16T10:50:39;20.70;50.60
16517;DHT22;8371;52.272;9.746;2023-05-16T10:53:28;20.70;50.60
16517;DHT22;8371;52.272;9.746;2023-05-16T10:58:40;20.60;50.00
16517;DHT22;8371;52.272;9.746;2023-05-16T11:06:26;20.40;49.60
16517;DHT22;8371;52.272;9.746;2023-05-16T11:09:16;20.40;49.20
16517;DHT22;8371;52.272;9.746;2023-05-16T11:11:59;20.40;49.90
16517;DHT22;8371;52.272;9.746;2023-05-16T11:17:19;20.60;50.50
16517;DHT22;8371;52.272;9.746;2023-05-16T11:19:45;20.70;50.60
16517;DHT22;8371;52.272;9.746;2023-05-16T11:22:23;20.90;50.10
16517;DHT22;8371;52.272;9.746;2023-05-16T11:24:52;21.00;49.60
16517;DHT22;8371;52.272;9.746;2023-05-16T11:27:30;21.10;49.40
16517;DHT22;8371;52.272;9.746;2023-05-16T11:30:10;21.10;49.00
16517;DHT22;8371;52.272;9.746;2023-05-16T11:32:39;21.10;48.50
16517;DHT22;8371;52.272;9.746;2023-05-16T11:35:08;21.00;49.00
16517;DHT22;8371;52.272;9.746;2023-05-16T11:37:35;21.10;48.70
16517;DHT22;8371;52.272;9.746;2023-05-16T11:40:02;21.20;49.60
16517;DHT22;8371;52.272;9.746;2023-05-16T11:42:29;21.30;50.00
16517;DHT22;8371;52.272;9.746;2023-05-16T11:45:04;21.30;49.10
16517;DHT22;8371;52.272;9.746;2023-05-16T11:47:30;21.30;48.80
16517;DHT22;8371;52.272;9.746;2023-05-16T11:49:57;21.30;48.90
16517;DHT22;8371;52.272;9.746;2023-05-16T11:52:22;21.30;48.80
16517;DHT22;8371;52.272;9.746;2023-05-16T11:54:48;21.40;49.40
16517;DHT22;8371;52.272;9.746;2023-05-16T11:57:15;21.60;49.20
16517;DHT22;8371;52.272;9.746;2023-05-16T11:59:41;21.60;49.20
16517;DHT22;8371;52.272;9.746;2023-05-16T12:02:07;21.70;49.00
16517;DHT22;8371;52.272;9.746;2023-05-16T12:04:34;21.80;48.60
16517;DHT22;8371;52.272;9.746;2023-05-16T12:07:02;21.80;48.20
16517;DHT22;8371;52.272;9.746;2023-05-16T12:09:29;21.80;47.90
16517;DHT22;8371;52.272;9.746;2023-05-16T12:11:55;21.70;47.70
16517;DHT22;8371;52.272;9.746;2023-05-16T12:14:21;21.70;47.80
16517;DHT22;8371;52.272;9.746;2023-05-16T12:16:47;21.70;47.80
16517;DHT22;8371;52.272;9.746;2023-05-16T12:19:13;21.80;47.90
16517;DHT22;8371;52.272;9.746;2023-05-16T12:21:39;21.90;48.10
16517;DHT22;8371;52.272;9.746;2023-05-16T12:24:10;22.00;47.40
16517;DHT22;8371;52.272;9.746;2023-05-16T12:26:39;22.10;47.40
16517;DHT22;8371;52.272;9.746;2023-05-16T12:29:05;22.20;46.40
16517;DHT22;8371;52.272;9.746;2023-05-16T12:31:36;22.10;46.60
16517;DHT22;8371;52.272;9.746;2023-05-16T12:34:16;22.00;46.30
16517;DHT22;8371;52.272;9.746;2023-05-16T12:36:42;21.70;46.20
16517;DHT22;8371;52.272;9.746;2023-05-16T12:39:12;21.90;46.10
16517;DHT22;8371;52.272;9.746;2023-05-16T12:41:42;21.80;45.50
16517;DHT22;8371;52.272;9.746;2023-05-16T12:44:28;21.60;45.90
16517;DHT22;8371;52.272;9.746;2023-05-16T12:46:46;21.50;46.10
16517;DHT22;8371;52.272;9.746;2023-05-16T12:49:14;21.40;45.90
16517;DHT22;8371;52.272;9.746;2023-05-16T12:51:51;21.40;46.40
16517;DHT22;8371;52.272;9.746;2023-05-16T12:54:23;21.40;45.20
16517;DHT22;8371;52.272;9.746;2023-05-16T12:56:52;21.10;45.20
16517;DHT22;8371;52.272;9.746;2023-05-16T12:59:18;21.40;45.40
16517;DHT22;8371;52.272;9.746;2023-05-16T13:01:44;21.30;45.00
16517;DHT22;8371;52.272;9.746;2023-05-16T13:04:16;21.20;44.50
16517;DHT22;8371;52.272;9.746;2023-05-16T13:06:44;21.00;44.50
16517;DHT22;8371;52.272;9.746;2023-05-16T13:09:09;21.00;44.70
16517;DHT22;8371;52.272;9.746;2023-05-16T13:11:35;20.80;45.10
16517;DHT22;8371;52.272;9.746;2023-05-16T13:14:04;20.70;44.80
16517;DHT22;8371;52.272;9.746;2023-05-16T13:16:39;20.50;44.60
16517;DHT22;8371;52.272;9.746;2023-05-16T13:19:05;20.20;44.80
16517;DHT22;8371;52.272;9.746;2023-05-16T13:21:30;20.00;45.10
16517;DHT22;8371;52.272;9.746;2023-05-16T13:24:05;19.80;44.90
16517;DHT22;8371;52.272;9.746;2023-05-16T13:26:31;19.60;45.40
16517;DHT22;8371;52.272;9.746;2023-05-16T13:28:56;19.30;45.10
16517;DHT22;8371;52.272;9.746;2023-05-16T13:33:50;18.90;45.30
16517;DHT22;8371;52.272;9.746;2023-05-16T13:36:16;18.80;45.40
16517;DHT22;8371;52.272;9.746;2023-05-16T13:38:42;18.60;45.10
16517;DHT22;8371;52.272;9.746;2023-05-16T13:41:08;18.50;45.90
16517;DHT22;8371;52.272;9.746;2023-05-16T13:43:34;18.40;45.80
16517;DHT22;8371;52.272;9.746;2023-05-16T13:46:00;18.30;46.00
16517;DHT22;8371;52.272;9.746;2023-05-16T13:48:25;18.20;46.10
16517;DHT22;8371;52.272;9.746;2023-05-16T13:50:51;18.20;46.10
16517;DHT22;8371;52.272;9.746;2023-05-16T13:53:17;18.10;46.30
16517;DHT22;8371;52.272;9.746;2023-05-16T13:55:43;18.10;46.60
16517;DHT22;8371;52.272;9.746;2023-05-16T13:58:09;18.20;47.00
16517;DHT22;8371;52.272;9.746;2023-05-16T14:00:35;18.20;47.40
16517;DHT22;8371;52.272;9.746;2023-05-16T14:03:00;18.30;47.70
16517;DHT22;8371;52.272;9.746;2023-05-16T14:05:26;18.40;47.80
16517;DHT22;8371;52.272;9.746;2023-05-16T14:07:52;18.60;47.70
16517;DHT22;8371;52.272;9.746;2023-05-16T14:10:18;18.80;47.80
16517;DHT22;8371;52.272;9.746;2023-05-16T14:12:44;19.00;47.80
16517;DHT22;8371;52.272;9.746;2023-05-16T14:15:10;19.20;47.80
16517;DHT22;8371;52.272;9.746;2023-05-16T14:17:36;19.30;47.40
16517;DHT22;8371;52.272;9.746;2023-05-16T14:20:02;19.40;46.90
16517;DHT22;8371;52.272;9.746;2023-05-16T14:22:29;19.60;46.90
16517;DHT22;8371;52.272;9.746;2023-05-16T14:24:56;19.70;46.60
16517;DHT22;8371;52.272;9.746;2023-05-16T14:27:22;19.70;45.40
16517;DHT22;8371;52.272;9.746;2023-05-16T14:29:48;19.80;45.30
16517;DHT22;8371;52.272;9.746;2023-05-16T14:32:13;19.70;45.90
16517;DHT22;8371;52.272;9.746;2023-05-16T14:34:39;19.70;45.10
16517;DHT22;8371;52.272;9.746;2023-05-16T14:37:05;19.60;45.10
16517;DHT22;8371;52.272;9.746;2023-05-16T14:39:31;19.40;44.50
16517;DHT22;8371;52.272;9.746;2023-05-16T14:41:56;19.20;44.60
16517;DHT22;8371;52.272;9.746;2023-05-16T14:44:22;19.00;44.60
16517;DHT22;8371;52.272;9.746;2023-05-16T14:46:49;18.70;44.90
16517;DHT22;8371;52.272;9.746;2023-05-16T14:49:16;18.50;45.20
16517;DHT22;8371;52.272;9.746;2023-05-16T14:51:41;18.30;45.70
16517;DHT22;8371;52.272;9.746;2023-05-16T14:54:09;18.10;45.90
16517;DHT22;8371;52.272;9.746;2023-05-16T14:56:35;17.90;46.40
16517;DHT22;8371;52.272;9.746;2023-05-16T14:59:00;17.90;47.00
16517;DHT22;8371;52.272;9.746;2023-05-16T15:01:26;17.90;47.20
16517;DHT22;8371;52.272;9.746;2023-05-16T15:03:52;17.90;47.40
16517;DHT22;8371;52.272;9.746;2023-05-16T15:06:18;17.90;47.50
16517;DHT22;8371;52.272;9.746;2023-05-16T15:08:43;17.50;47.10
16517;DHT22;8371;52.272;9.746;2023-05-16T15:11:09;18.00;47.00
16517;DHT22;8371;52.272;9.746;2023-05-16T15:13:35;18.10;46.80
16517;DHT22;8371;52.272;9.746;2023-05-16T15:16:01;18.10;46.60
16517;DHT22;8371;52.272;9.746;2023-05-16T15:18:27;18.00;46.90
16517;DHT22;8371;52.272;9.746;2023-05-16T15:20:52;18.10;47.00
16517;DHT22;8371;52.272;9.746;2023-05-16T15:23:18;18.10;47.00
16517;DHT22;8371;52.272;9.746;2023-05-16T15:25:44;18.10;47.30
16517;DHT22;8371;52.272;9.746;2023-05-16T15:28:09;18.00;47.50
16517;DHT22;8371;52.272;9.746;2023-05-16T15:30:35;18.10;47.50
16517;DHT22;8371;52.272;9.746;2023-05-16T15:33:01;18.10;47.50
16517;DHT22;8371;52.272;9.746;2023-05-16T15:35:26;18.20;47.60
16517;DHT22;8371;52.272;9.746;2023-05-16T15:37:52;18.30;47.80
16517;DHT22;8371;52.272;9.746;2023-05-16T15:40:18;18.40;47.80
16517;DHT22;8371;52.272;9.746;2023-05-16T15:42:44;18.60;48.10
16517;DHT22;8371;52.272;9.746;2023-05-16T15:45:10;18.80;47.90
16517;DHT22;8371;52.272;9.746;2023-05-16T15:47:36;18.90;47.30
16517;DHT22;8371;52.272;9.746;2023-05-16T15:50:03;18.90;47.20
16517;DHT22;8371;52.272;9.746;2023-05-16T15:52:28;18.90;47.00
16517;DHT22;8371;52.272;9.746;2023-05-16T15:54:54;19.00;47.10
16517;DHT22;8371;52.272;9.746;2023-05-16T15:57:20;18.90;47.10
16517;DHT22;8371;52.272;9.746;2023-05-16T15:59:45;19.00;47.10
16517;DHT22;8371;52.272;9.746;2023-05-16T16:02:11;19.10;46.90
16517;DHT22;8371;52.272;9.746;2023-05-16T16:04:37;19.10;46.90